Time;durP1;ratioP1;P1;durP2;ratioP2;P2;SDS_P1;SDS_P2;PMS_P1;PMS_P2;Temp;Humidity;BMP_temperature;BMP_pressure;BME280_temperature;BME280_humidity;BME280_pressure;Samples;Min_cycle;Max_cycle;Signal;HPM_P1;HPM_P2
2022/12/07 00:01:20;;;;;;;18.65;11.43;;;6.20;77.10;;;;;;2374195;56;21582;-50
2022/12/07 00:03:48;;;;;;;19.87;11.80;;;6.20;77.10;;;;;;2373582;56;21495;-47
2022/12/07 00:06:17;;;;;;;20.95;12.10;;;6.20;76.90;;;;;;2373400;56;21047;-48
2022/12/07 00:08:46;;;;;;;22.52;12.70;;;6.20;76.90;;;;;;2372467;56;22149;-48
2022/12/07 00:11:14;;;;;;;24.73;13.57;;;6.20;76.80;;;;;;2372414;56;22197;-47
2022/12/07 00:13:42;;;;;;;21.80;12.57;;;6.20;76.80;;;;;;2372390;56;21050;-49
2022/12/07 00:16:12;;;;;;;22.13;13.18;;;6.20;76.80;;;;;;2372228;56;21122;-48
2022/12/07 00:18:40;;;;;;;23.17;13.90;;;6.20;76.80;;;;;;2372307;56;21039;-50
2022/12/07 00:21:10;;;;;;;22.20;13.65;;;6.20;77.10;;;;;;2372949;56;21109;-50
2022/12/07 00:23:37;;;;;;;26.65;14.65;;;6.20;77.30;;;;;;2372850;56;21507;-50
2022/12/07 00:26:06;;;;;;;23.40;14.35;;;6.20;77.60;;;;;;2372988;56;21050;-50
2022/12/07 00:28:33;;;;;;;23.87;13.93;;;6.20;77.80;;;;;;2372629;56;21047;-50
2022/12/07 00:31:02;;;;;;;24.35;14.20;;;6.20;78.00;;;;;;2371575;56;21685;-53
2022/12/07 00:33:30;;;;;;;34.40;17.45;;;6.20;78.10;;;;;;2372427;56;21542;-50
2022/12/07 00:35:58;;;;;;;31.83;16.85;;;6.30;78.10;;;;;;2372486;56;21547;-52
2022/12/07 00:38:27;;;;;;;32.00;18.12;;;6.30;78.10;;;;;;2372820;56;21507;-48
2022/12/07 00:40:58;;;;;;;28.85;15.55;;;6.30;78.20;;;;;;2372152;56;21542;-47
2022/12/07 00:43:26;;;;;;;26.08;16.00;;;6.30;78.20;;;;;;2373942;56;21535;-48
2022/12/07 00:45:54;;;;;;;26.20;15.05;;;6.30;78.20;;;;;;2374018;56;21031;-49
2022/12/07 00:48:21;;;;;;;25.62;15.00;;;6.30;78.30;;;;;;2373904;56;21027;-49
2022/12/07 00:50:49;;;;;;;26.37;14.93;;;6.30;78.20;;;;;;2374188;56;21027;-50
2022/12/07 00:53:16;;;;;;;29.20;16.75;;;6.40;78.30;;;;;;2374013;56;21011;-47
2022/12/07 00:55:44;;;;;;;31.37;14.80;;;6.30;78.40;;;;;;2373970;56;21169;-48
2022/12/07 00:58:11;;;;;;;25.92;14.70;;;6.30;78.40;;;;;;2372976;56;21070;-50
2022/12/07 01:00:42;;;;;;;24.15;13.62;;;6.40;78.50;;;;;;2372180;56;22161;-49
2022/12/07 01:03:11;;;;;;;26.30;16.00;;;6.40;78.30;;;;;;2372338;56;21559;-50
2022/12/07 01:05:38;;;;;;;26.67;16.37;;;6.40;78.30;;;;;;2372331;56;22130;-50
2022/12/07 01:08:06;;;;;;;27.65;16.12;;;6.40;78.40;;;;;;2372534;56;21051;-49
2022/12/07 01:10:34;;;;;;;30.02;17.10;;;6.40;78.50;;;;;;2372710;56;22181;-48
2022/12/07 01:13:01;;;;;;;25.95;15.63;;;6.40;78.90;;;;;;2372216;56;21052;-48
2022/12/07 01:15:28;;;;;;;30.33;16.73;;;6.40;79.00;;;;;;2372859;56;21043;-52
2022/12/07 01:17:55;;;;;;;28.33;15.25;;;6.40;79.10;;;;;;2373158;56;21551;-49
2022/12/07 01:20:23;;;;;;;25.37;15.70;;;6.40;79.20;;;;;;2372420;56;21599;-49
2022/12/07 01:22:50;;;;;;;25.92;14.57;;;6.40;79.00;;;;;;2372318;56;21571;-50
2022/12/07 01:25:18;;;;;;;28.62;14.93;;;6.50;78.90;;;;;;2372326;56;21122;-49
2022/12/07 01:27:45;;;;;;;27.17;15.80;;;6.50;78.90;;;;;;2372260;56;22107;-49
2022/12/07 01:30:14;;;;;;;31.83;17.35;;;6.50;79.10;;;;;;2372440;56;21051;-47
2022/12/07 01:32:41;;;;;;;26.17;14.40;;;6.50;79.10;;;;;;2372694;56;21039;-46
2022/12/07 01:35:09;;;;;;;24.45;14.85;;;6.50;79.10;;;;;;2372725;56;21118;-48
2022/12/07 01:37:37;;;;;;;28.95;16.52;;;6.50;79.20;;;;;;2374291;56;21020;-47
2022/12/07 01:40:07;;;;;;;23.83;14.75;;;6.60;79.10;;;;;;2374314;56;21578;-47
2022/12/07 01:42:34;;;;;;;27.15;15.68;;;6.60;79.20;;;;;;2374456;56;21027;-49
2022/12/07 01:45:47;;;;;;;28.85;14.15;;;6.60;79.10;;;;;;2374250;56;21023;-48
2022/12/07 01:48:19;;;;;;;22.77;13.70;;;6.60;79.00;;;;;;2374672;56;20999;-52
2022/12/07 01:50:50;;;;;;;22.37;14.02;;;6.60;78.80;;;;;;2373392;56;21385;-48
2022/12/07 01:53:18;;;;;;;23.15;13.05;;;6.60;78.90;;;;;;2372980;56;22080;-50
2022/12/07 01:55:49;;;;;;;27.52;13.18;;;6.60;78.90;;;;;;2372514;56;21074;-48
2022/12/07 01:58:17;;;;;;;25.00;12.75;;;6.60;78.90;;;;;;2372103;56;21547;-52
2022/12/07 02:00:45;;;;;;;20.88;12.15;;;6.60;78.80;;;;;;2372389;56;21562;-47
2022/12/07 02:03:18;;;;;;;22.92;11.98;;;6.60;78.80;;;;;;2372334;56;21063;-47
2022/12/07 02:05:46;;;;;;;26.83;12.63;;;6.60;78.90;;;;;;2373222;56;21157;-49
2022/12/07 02:08:14;;;;;;;21.73;12.13;;;6.60;79.00;;;;;;2373335;56;21586;-48
2022/12/07 02:10:42;;;;;;;18.60;10.52;;;6.60;79.00;;;;;;2373004;56;21054;-48
2022/12/07 02:13:14;;;;;;;18.37;10.02;;;6.60;79.10;;;;;;2372617;56;21122;-46
2022/12/07 02:16:01;;;;;;;19.37;11.30;;;6.60;79.10;;;;;;2372889;56;21400;-47
2022/12/07 02:18:39;;;;;;;18.25;9.90;;;6.60;79.10;;;;;;2372698;56;21634;-53
2022/12/07 02:21:11;;;;;;;19.73;11.18;;;6.60;79.10;;;;;;2372095;56;21133;-50
2022/12/07 02:24:10;;;;;;;18.80;10.65;;;6.60;79.40;;;;;;2372481;56;21565;-52
2022/12/07 02:27:07;;;;;;;15.75;9.85;;;6.60;79.60;;;;;;2372539;56;21653;-51
2022/12/07 02:29:38;;;;;;;17.25;10.55;;;6.60;79.50;;;;;;2372556;56;21043;-53
2022/12/07 02:32:11;;;;;;;15.02;8.68;;;6.70;79.20;;;;;;2373624;56;21519;-49
2022/12/07 02:34:46;;;;;;;18.08;8.85;;;6.70;79.20;;;;;;2374772;56;21109;-49
2022/12/07 02:37:21;;;;;;;31.60;9.93;;;6.70;79.20;;;;;;2373697;56;21710;-52
2022/12/07 02:39:54;;;;;;;18.70;9.38;;;6.70;79.20;;;;;;2373023;56;22090;-49
2022/12/07 02:42:23;;;;;;;;;;;6.70;79.00;;;;;;2376237;56;21673;-48
2022/12/07 02:44:52;;;;;;;12.27;7.90;;;6.80;78.80;;;;;;2372310;56;20298;-53
2022/12/07 02:47:21;;;;;;;16.12;8.10;;;6.80;78.50;;;;;;2372431;56;21622;-51
2022/12/07 02:49:49;;;;;;;12.93;8.07;;;6.70;78.80;;;;;;2372777;56;21574;-52
2022/12/07 02:52:16;;;;;;;13.48;6.60;;;6.70;78.90;;;;;;2372694;56;21718;-47
2022/12/07 02:54:43;;;;;;;11.15;6.20;;;6.70;79.20;;;;;;2372122;56;21118;-49
2022/12/07 02:57:32;;;;;;;11.90;7.03;;;6.70;79.00;;;;;;2372709;56;21042;-48
2022/12/07 03:00:05;;;;;;;11.95;6.62;;;6.60;78.90;;;;;;2373112;56;21058;-51
2022/12/07 03:02:41;;;;;;;16.87;7.00;;;6.60;78.80;;;;;;2372750;56;21067;-47
2022/12/07 03:05:31;;;;;;;13.93;6.55;;;6.60;78.60;;;;;;2371028;56;21629;-48
2022/12/07 03:08:03;;;;;;;13.57;5.78;;;6.60;78.50;;;;;;2372815;56;22104;-49
2022/12/07 03:10:45;;;;;;;11.30;6.55;;;6.60;78.40;;;;;;2373542;56;21051;-50
2022/12/07 03:13:21;;;;;;;11.37;6.73;;;6.60;78.30;;;;;;2372824;56;21544;-47
2022/12/07 03:15:54;;;;;;;12.73;6.10;;;6.50;78.00;;;;;;2372874;56;21122;-51
2022/12/07 03:18:24;;;;;;;9.77;5.78;;;6.50;78.00;;;;;;2372772;56;21077;-51
2022/12/07 03:20:53;;;;;;;13.90;5.85;;;6.50;78.00;;;;;;2372764;56;21621;-49
2022/12/07 03:23:23;;;;;;;10.77;5.55;;;6.50;77.80;;;;;;2372959;56;21062;-51
2022/12/07 03:25:56;;;;;;;14.73;5.15;;;6.40;77.60;;;;;;2374294;56;21007;-50
2022/12/07 03:28:27;;;;;;;8.20;4.72;;;6.40;77.70;;;;;;2374547;56;21019;-49
2022/12/07 03:30:59;;;;;;;12.15;5.18;;;6.40;77.90;;;;;;2374177;56;21110;-50
2022/12/07 03:33:32;;;;;;;10.20;4.70;;;6.30;77.70;;;;;;2373358;56;21126;-48
2022/12/07 03:36:04;;;;;;;7.20;4.22;;;6.30;77.80;;;;;;2372867;56;21624;-50
2022/12/07 03:38:38;;;;;;;10.45;4.65;;;6.30;77.90;;;;;;2372531;56;21666;-49
2022/12/07 03:41:08;;;;;;;6.10;3.83;;;6.20;77.80;;;;;;2372847;56;21019;-48
2022/12/07 03:43:37;;;;;;;6.35;3.83;;;6.20;77.80;;;;;;2372602;56;21602;-50
2022/12/07 03:46:13;;;;;;;7.65;3.85;;;6.20;77.60;;;;;;2372763;56;21566;-47
2022/12/07 03:48:47;;;;;;;6.97;3.53;;;6.20;77.60;;;;;;2373305;56;21054;-46
2022/12/07 03:51:21;;;;;;;6.68;3.28;;;6.20;77.60;;;;;;2373160;56;21072;-48
2022/12/07 03:53:54;;;;;;;6.05;3.00;;;6.10;77.80;;;;;;2372300;56;21122;-49
2022/12/07 03:56:23;;;;;;;7.87;3.35;;;6.10;77.80;;;;;;2372013;56;21118;-46
2022/12/07 03:58:52;;;;;;;5.55;3.40;;;6.10;77.80;;;;;;2372608;56;21554;-49
2022/12/07 04:01:19;;;;;;;12.95;3.17;;;6.00;77.90;;;;;;2373111;56;21126;-53
2022/12/07 04:03:46;;;;;;;5.03;2.97;;;6.00;78.10;;;;;;2372708;56;21054;-47
2022/12/07 04:06:14;;;;;;;5.05;2.90;;;6.00;78.10;;;;;;2372840;56;21114;-51
2022/12/07 04:08:41;;;;;;;7.90;3.47;;;6.00;78.30;;;;;;2372613;56;21609;-50
2022/12/07 04:11:08;;;;;;;8.10;3.35;;;5.90;78.40;;;;;;2372611;56;21084;-51
2022/12/07 04:14:18;;;;;;;8.95;2.70;;;5.90;78.60;;;;;;2372048;56;21054;-51
2022/12/07 04:16:45;;;;;;;6.20;3.30;;;5.90;78.50;;;;;;2372543;56;21059;-49
2022/12/07 04:19:12;;;;;;;7.35;3.17;;;6.00;78.10;;;;;;2372730;56;21067;-50
2022/12/07 04:21:40;;;;;;;6.22;2.97;;;5.90;77.80;;;;;;2372538;56;21610;-55
2022/12/07 04:24:07;;;;;;;9.90;3.28;;;5.90;78.10;;;;;;2372604;56;21059;-53
2022/12/07 04:26:35;;;;;;;6.53;3.03;;;5.90;78.20;;;;;;2372555;56;21135;-51
2022/12/07 04:29:02;;;;;;;6.95;2.92;;;5.80;78.20;;;;;;2372449;56;21783;-51
2022/12/07 04:31:29;;;;;;;7.32;3.62;;;5.80;78.30;;;;;;2372560;56;21200;-48
2022/12/07 04:33:56;;;;;;;5.90;3.30;;;5.80;78.30;;;;;;2372442;56;21425;-47
2022/12/07 04:36:23;;;;;;;5.45;3.10;;;5.80;78.30;;;;;;2372821;56;21055;-46
2022/12/07 04:38:52;;;;;;;4.78;2.97;;;5.80;78.30;;;;;;2373390;56;21531;-49
2022/12/07 04:41:26;;;;;;;6.12;3.15;;;5.80;78.00;;;;;;2372876;56;21523;-47
2022/12/07 04:43:55;;;;;;;5.47;3.15;;;5.80;78.10;;;;;;2372909;56;21043;-52
2022/12/07 04:46:23;;;;;;;4.90;3.50;;;5.80;78.00;;;;;;2372326;56;21110;-52
2022/12/07 04:48:50;;;;;;;5.20;3.72;;;5.80;77.80;;;;;;2372627;56;21039;-50
2022/12/07 04:51:22;;;;;;;7.53;3.15;;;5.80;78.00;;;;;;2371768;56;21640;-49
2022/12/07 04:53:49;;;;;;;12.77;4.00;;;5.70;78.10;;;;;;2372879;56;21042;-52
2022/12/07 04:56:18;;;;;;;6.25;3.40;;;5.70;78.10;;;;;;2372722;56;21519;-49
2022/12/07 04:58:46;;;;;;;7.03;4.18;;;5.70;78.20;;;;;;2372607;56;21039;-47
2022/12/07 05:01:13;;;;;;;7.97;4.37;;;5.70;78.10;;;;;;2372637;56;21606;-51
2022/12/07 05:03:41;;;;;;;7.00;4.50;;;5.70;78.20;;;;;;2372216;56;21574;-53
2022/12/07 05:06:09;;;;;;;6.78;4.00;;;5.70;78.30;;;;;;2372424;56;21629;-51
2022/12/07 05:08:36;;;;;;;5.37;3.87;;;5.70;78.20;;;;;;2374378;56;21496;-52
2022/12/07 05:11:04;;;;;;;6.35;3.70;;;5.70;78.20;;;;;;2374227;56;21550;-49
2022/12/07 05:13:32;;;;;;;7.95;4.22;;;5.70;78.20;;;;;;2374056;56;21170;-49
2022/12/07 05:15:59;;;;;;;6.28;4.40;;;5.80;78.10;;;;;;2372791;56;21213;-55
2022/12/07 05:18:27;;;;;;;10.45;4.62;;;5.80;78.10;;;;;;2371126;56;21641;-47
2022/12/07 05:20:54;;;;;;;7.22;3.95;;;5.80;77.90;;;;;;2372601;56;21058;-48
2022/12/07 05:23:21;;;;;;;6.40;3.72;;;5.80;77.70;;;;;;2371790;56;21144;-48
2022/12/07 05:25:48;;;;;;;7.03;4.50;;;5.70;77.50;;;;;;2371890;56;21110;-54
2022/12/07 05:28:15;;;;;;;7.45;3.62;;;5.80;77.50;;;;;;2372668;56;22145;-49
2022/12/07 05:30:42;;;;;;;5.85;3.42;;;5.70;77.20;;;;;;2372742;56;21115;-49
2022/12/07 05:33:09;;;;;;;4.68;3.60;;;5.70;77.10;;;;;;2371927;56;21042;-51
2022/12/07 05:35:37;;;;;;;7.87;4.20;;;5.70;76.90;;;;;;2372182;56;21047;-52
2022/12/07 05:38:04;;;;;;;6.05;3.50;;;5.70;76.80;;;;;;2371172;56;21114;-51
2022/12/07 05:40:31;;;;;;;6.12;3.95;;;5.70;76.60;;;;;;2372177;56;21321;-51
2022/12/07 05:42:59;;;;;;;6.53;3.78;;;5.70;76.40;;;;;;2371809;56;21216;-47
2022/12/07 05:45:26;;;;;;;6.45;4.03;;;5.70;76.40;;;;;;2372035;56;21122;-51
2022/12/07 05:47:53;;;;;;;4.97;3.35;;;5.70;76.30;;;;;;2372208;56;21137;-51
2022/12/07 05:50:20;;;;;;;4.78;3.37;;;5.60;76.20;;;;;;2371296;56;21063;-48
2022/12/07 05:52:48;;;;;;;7.50;3.95;;;5.60;76.20;;;;;;2371924;56;21519;-47
2022/12/07 05:55:15;;;;;;;6.10;3.83;;;5.60;76.20;;;;;;2371992;56;21681;-53
2022/12/07 05:59:22;;;;;;;7.00;3.65;;;5.60;76.00;;;;;;2374034;56;21169;-55
2022/12/07 06:01:49;;;;;;;6.62;4.40;;;5.60;75.90;;;;;;2373566;56;21024;-47
2022/12/07 06:04:16;;;;;;;6.20;4.25;;;5.60;75.80;;;;;;2373945;56;21047;-47
2022/12/07 06:06:43;;;;;;;5.53;3.78;;;5.60;77.00;;;;;;2373266;56;21027;-49
2022/12/07 06:09:12;;;;;;;6.35;3.90;;;5.60;77.80;;;;;;2372935;56;21058;-51
2022/12/07 06:14:25;;;;;;;7.20;4.45;;;5.60;77.10;;;;;;2370836;56;21039;-48
2022/12/07 06:16:52;;;;;;;6.85;4.12;;;5.60;76.40;;;;;;2371399;56;22290;-56
2022/12/07 06:19:20;;;;;;;6.80;4.45;;;5.60;76.00;;;;;;2371907;56;21060;-48
2022/12/07 06:21:47;;;;;;;6.57;4.15;;;5.50;75.80;;;;;;2371781;56;22130;-52
2022/12/07 06:24:16;;;;;;;7.78;4.75;;;5.50;75.60;;;;;;2372191;56;21094;-57
2022/12/07 06:26:44;;;;;;;7.25;3.97;;;5.50;76.20;;;;;;2371526;56;21674;-51
2022/12/07 06:29:12;;;;;;;7.50;3.90;;;5.60;77.50;;;;;;2373163;56;21673;-55
2022/12/07 06:31:40;;;;;;;8.07;4.25;;;5.60;77.60;;;;;;2373181;56;21629;-55
2022/12/07 06:34:10;;;;;;;6.10;4.10;;;5.60;77.20;;;;;;2372372;56;21629;-55
2022/12/07 06:36:37;;;;;;;7.75;4.30;;;5.60;76.30;;;;;;2372353;56;21372;-52
2022/12/07 06:39:05;;;;;;;7.68;4.53;;;5.60;75.70;;;;;;2371637;56;22598;-49
2022/12/07 06:41:32;;;;;;;7.50;4.32;;;5.60;75.20;;;;;;2372321;56;21058;-47
2022/12/07 06:44:00;;;;;;;10.85;4.43;;;5.50;75.00;;;;;;2372052;56;21043;-49
2022/12/07 06:46:27;;;;;;;6.82;4.75;;;5.50;74.90;;;;;;2372532;56;21142;-49
2022/12/07 06:48:54;;;;;;;6.95;4.78;;;5.50;74.90;;;;;;2373077;56;21110;-50
2022/12/07 06:51:21;;;;;;;8.80;5.35;;;5.40;74.80;;;;;;2372808;56;21089;-55
2022/12/07 06:53:48;;;;;;;12.50;5.15;;;5.40;74.80;;;;;;2372534;56;21063;-53
2022/12/07 06:56:15;;;;;;;8.85;5.07;;;5.40;74.80;;;;;;2372648;56;22206;-55
2022/12/07 06:58:43;;;;;;;10.52;5.18;;;5.40;74.90;;;;;;2372979;56;21131;-56
2022/12/07 07:01:11;;;;;;;8.40;4.80;;;5.40;74.90;;;;;;2372815;56;21609;-51
2022/12/07 07:03:39;;;;;;;8.23;4.90;;;5.30;75.00;;;;;;2372898;56;21042;-51
2022/12/07 07:06:07;;;;;;;7.43;4.90;;;5.30;75.20;;;;;;2372919;56;21095;-56
2022/12/07 07:08:35;;;;;;;9.15;5.75;;;5.30;75.20;;;;;;2372748;56;21589;-50
2022/12/07 07:11:02;;;;;;;8.20;5.10;;;5.30;75.20;;;;;;2372611;56;21645;-51
2022/12/07 07:13:29;;;;;;;7.32;4.55;;;5.30;75.40;;;;;;2372934;56;21549;-53
2022/12/07 07:15:56;;;;;;;7.97;5.00;;;5.30;75.40;;;;;;2372865;56;21106;-50
2022/12/07 07:18:24;;;;;;;9.18;5.28;;;5.20;75.40;;;;;;2373168;56;21142;-51
2022/12/07 07:20:52;;;;;;;9.20;5.40;;;5.20;75.80;;;;;;2373024;56;21575;-49
2022/12/07 07:23:19;;;;;;;7.05;4.07;;;5.10;75.90;;;;;;2372973;56;21550;-52
2022/12/07 07:25:47;;;;;;;6.82;3.97;;;5.20;75.90;;;;;;2372988;56;21644;-50
2022/12/07 07:28:14;;;;;;;11.73;5.25;;;5.10;76.10;;;;;;2372887;56;22114;-55
2022/12/07 07:30:41;;;;;;;27.80;5.60;;;5.10;76.20;;;;;;2372897;56;21090;-50
2022/12/07 07:33:10;;;;;;;6.05;4.07;;;5.10;76.30;;;;;;2372991;56;21118;-51
2022/12/07 07:35:37;;;;;;;6.30;3.92;;;5.10;76.40;;;;;;2372750;56;21654;-51
2022/12/07 07:38:05;;;;;;;12.68;4.47;;;5.10;76.50;;;;;;2372580;56;21653;-50
2022/12/07 07:40:33;;;;;;;8.00;4.57;;;5.10;76.50;;;;;;2373070;56;21547;-47
2022/12/07 07:43:00;;;;;;;11.75;4.75;;;5.20;76.70;;;;;;2374469;56;21567;-54
2022/12/07 07:45:28;;;;;;;7.32;4.15;;;5.10;76.70;;;;;;2374326;56;21073;-51
2022/12/07 07:47:55;;;;;;;8.45;4.28;;;5.10;76.60;;;;;;2374446;56;21555;-48
2022/12/07 07:50:22;;;;;;;7.28;4.18;;;5.20;76.90;;;;;;2373945;56;21105;-52
2022/12/07 07:52:51;;;;;;;10.35;5.00;;;5.20;76.80;;;;;;2372672;56;21055;-50
2022/12/07 07:55:18;;;;;;;9.50;4.72;;;5.10;76.80;;;;;;2372154;56;21063;-50
2022/12/07 07:57:45;;;;;;;7.30;4.22;;;5.20;76.70;;;;;;2372513;56;21027;-52
2022/12/07 08:00:16;;;;;;;6.30;3.95;;;5.20;76.80;;;;;;2372653;56;21594;-50
2022/12/07 08:02:43;;;;;;;5.93;3.90;;;5.20;77.10;;;;;;2372792;56;21672;-51
2022/12/07 08:05:11;;;;;;;6.30;4.22;;;5.10;77.20;;;;;;2373291;56;21102;-55
2022/12/07 08:07:38;;;;;;;10.00;3.55;;;5.20;77.20;;;;;;2373573;56;21055;-53
2022/12/07 08:10:09;;;;;;;12.23;3.80;;;5.10;77.30;;;;;;2373030;56;21067;-49
2022/12/07 08:13:10;;;;;;;5.87;3.33;;;5.20;77.50;;;;;;2373139;56;21066;-47
2022/12/07 08:15:39;;;;;;;7.43;3.35;;;5.20;77.50;;;;;;2372888;56;21148;-54
2022/12/07 08:18:07;;;;;;;8.40;3.70;;;5.20;77.20;;;;;;2372712;56;21118;-50
2022/12/07 08:20:36;;;;;;;7.35;3.03;;;5.20;77.20;;;;;;2372927;56;21162;-47
2022/12/07 08:23:03;;;;;;;6.40;3.20;;;5.20;77.50;;;;;;2372601;56;21535;-51
2022/12/07 08:25:31;;;;;;;4.70;2.97;;;5.20;77.80;;;;;;2372888;56;21617;-54
2022/12/07 08:28:00;;;;;;;8.15;3.58;;;5.20;77.90;;;;;;2372647;56;21102;-52
2022/12/07 08:30:27;;;;;;;5.00;2.60;;;5.20;77.80;;;;;;2373921;56;21092;-54
2022/12/07 08:32:55;;;;;;;9.00;2.92;;;5.20;77.80;;;;;;2374359;56;21567;-51
2022/12/07 08:35:23;;;;;;;5.80;2.80;;;5.20;77.90;;;;;;2374355;56;21015;-52
2022/12/07 08:37:50;;;;;;;6.28;3.20;;;5.30;77.90;;;;;;2374613;56;21019;-49
2022/12/07 08:40:18;;;;;;;7.25;2.42;;;5.30;77.90;;;;;;2373807;56;21050;-49
2022/12/07 08:42:49;;;;;;;8.55;3.37;;;5.30;77.70;;;;;;2372955;56;22131;-52
2022/12/07 08:45:18;;;;;;;3.70;2.55;;;5.30;77.90;;;;;;2372694;56;21055;-50
2022/12/07 08:47:51;;;;;;;7.37;2.60;;;5.30;77.90;;;;;;2372794;56;21524;-55
2022/12/07 08:50:19;;;;;;;5.68;3.10;;;5.30;78.00;;;;;;2373220;56;21098;-51
2022/12/07 08:52:51;;;;;;;8.40;2.92;;;5.30;77.70;;;;;;2372792;56;21601;-53
2022/12/07 08:55:18;;;;;;;5.32;2.50;;;5.30;77.70;;;;;;2372605;56;21126;-57
2022/12/07 08:57:46;;;;;;;8.38;2.60;;;5.40;78.10;;;;;;2373400;56;21685;-53
2022/12/07 09:00:16;;;;;;;5.28;2.60;;;5.40;78.00;;;;;;2373084;56;21034;-49
2022/12/07 09:02:44;;;;;;;5.28;3.17;;;5.40;78.10;;;;;;2373107;56;21059;-50
2022/12/07 09:05:14;;;;;;;10.65;3.08;;;5.40;77.50;;;;;;2372937;56;21122;-52
2022/12/07 09:07:43;;;;;;;5.47;3.12;;;5.40;78.50;;;;;;2372889;56;21545;-50
2022/12/07 09:10:12;;;;;;;3.72;2.50;;;5.40;77.80;;;;;;2372611;56;21563;-53
2022/12/07 09:12:39;;;;;;;7.15;2.90;;;5.40;78.10;;;;;;2372832;56;21118;-50
2022/12/07 09:15:08;;;;;;;5.70;2.50;;;5.50;78.20;;;;;;2372455;56;21681;-53
2022/12/07 09:17:36;;;;;;;13.18;3.97;;;5.50;78.20;;;;;;2372640;56;21574;-50
2022/12/07 09:20:05;;;;;;;9.90;2.78;;;5.50;78.10;;;;;;2374314;56;21098;-54
2022/12/07 09:22:32;;;;;;;7.70;2.87;;;5.50;78.40;;;;;;2374421;56;21570;-55
2022/12/07 09:25:00;;;;;;;8.80;3.17;;;5.60;78.50;;;;;;2373827;56;21019;-49
2022/12/07 09:27:28;;;;;;;6.97;3.17;;;5.60;78.30;;;;;;2374419;56;21022;-51
2022/12/07 09:29:55;;;;;;;6.32;2.28;;;5.70;78.30;;;;;;2374260;56;21067;-53
2022/12/07 09:32:23;;;;;;;8.15;3.03;;;5.70;78.20;;;;;;2373641;56;21046;-52
2022/12/07 09:34:50;;;;;;;8.90;2.67;;;5.70;78.20;;;;;;2372623;56;21340;-53
2022/12/07 09:37:17;;;;;;;7.18;2.55;;;5.70;78.10;;;;;;2372656;56;21055;-48
2022/12/07 09:39:44;;;;;;;8.27;2.53;;;5.80;78.10;;;;;;2372875;56;21042;-53
2022/12/07 09:42:29;;;;;;;5.35;2.37;;;5.80;78.10;;;;;;2372954;56;21094;-58
2022/12/07 09:44:57;;;;;;;4.20;2.35;;;5.80;78.10;;;;;;2373797;56;21059;-50
2022/12/07 09:47:25;;;;;;;5.10;2.22;;;5.90;78.00;;;;;;2374048;56;21605;-54
2022/12/07 09:49:54;;;;;;;8.68;2.30;;;5.90;77.90;;;;;;2374395;56;21346;-56
2022/12/07 09:52:27;;;;;;;10.18;2.70;;;6.00;77.90;;;;;;2373711;56;21650;-50
2022/12/07 09:54:54;;;;;;;6.20;2.20;;;6.00;77.90;;;;;;2373887;56;21519;-50
2022/12/07 09:57:28;;;;;;;7.18;2.17;;;6.00;77.80;;;;;;2373847;56;21046;-50
2022/12/07 10:00:00;;;;;;;7.05;2.28;;;6.00;77.80;;;;;;2373967;56;21110;-50
2022/12/07 10:02:35;;;;;;;11.20;2.35;;;6.00;77.80;;;;;;2373669;56;21598;-52
2022/12/07 10:05:06;;;;;;;10.73;2.50;;;6.10;77.70;;;;;;2373772;56;21162;-48
2022/12/07 10:07:33;;;;;;;5.47;2.50;;;6.10;77.30;;;;;;2373113;56;21063;-57
2022/12/07 10:10:03;;;;;;;10.40;3.87;;;6.10;77.70;;;;;;2373560;56;21099;-49
2022/12/07 10:12:30;;;;;;;9.02;2.70;;;6.10;77.80;;;;;;2375027;56;21031;-52
2022/12/07 10:15:02;;;;;;;3.58;2.10;;;6.10;77.70;;;;;;2374754;56;21027;-52
2022/12/07 10:17:36;;;;;;;11.35;2.62;;;6.20;77.80;;;;;;2375065;56;21098;-52
2022/12/07 10:23:04;;;;;;;7.07;2.50;;;6.20;78.00;;;;;;2355806;57;22097;-50
2022/12/07 10:25:34;;;;;;;13.43;2.90;;;6.30;77.80;;;;;;2372512;56;21661;-53
2022/12/07 10:28:11;;;;;;;7.35;3.20;;;6.30;77.90;;;;;;2374822;56;21942;-55
2022/12/07 10:30:58;;;;;;;9.82;2.20;;;6.30;77.90;;;;;;2374741;56;21527;-51
2022/12/07 10:33:31;;;;;;;4.62;2.00;;;6.40;77.90;;;;;;2375014;56;21043;-53
2022/12/07 10:35:59;;;;;;;13.02;3.00;;;6.40;77.60;;;;;;2374296;56;21043;-51
2022/12/07 10:38:30;;;;;;;7.12;2.10;;;6.40;77.40;;;;;;2374950;56;21043;-52
2022/12/07 10:41:07;;;;;;;7.82;2.20;;;6.40;77.30;;;;;;2375449;56;21047;-47
2022/12/07 10:43:35;;;;;;;8.38;2.30;;;6.50;77.20;;;;;;2375808;56;21514;-47
2022/12/07 10:46:45;;;;;;;8.10;2.33;;;6.50;76.90;;;;;;2375389;56;21039;-51
2022/12/07 10:49:54;;;;;;;8.73;2.08;;;6.50;77.00;;;;;;2374824;56;21635;-53
2022/12/07 10:52:36;;;;;;;8.38;2.40;;;6.50;76.70;;;;;;2374787;56;22140;-49
2022/12/07 10:55:13;;;;;;;7.87;1.92;;;6.50;76.50;;;;;;2374513;56;21637;-51
2022/12/07 10:57:52;;;;;;;9.40;2.60;;;6.50;76.70;;;;;;2375080;56;21055;-50
2022/12/07 11:00:22;;;;;;;5.53;1.87;;;6.50;76.60;;;;;;2374272;56;21583;-51
2022/12/07 11:03:23;;;;;;;7.70;1.85;;;6.50;76.30;;;;;;2374609;56;21081;-52
2022/12/07 11:05:56;;;;;;;8.10;2.25;;;6.50;76.00;;;;;;2376040;56;21435;-48
2022/12/07 11:08:36;;;;;;;4.55;2.10;;;6.50;75.60;;;;;;2376340;56;21633;-51
2022/12/07 11:11:11;;;;;;;6.30;1.87;;;6.50;75.80;;;;;;2375006;56;21172;-51
2022/12/07 11:13:46;;;;;;;7.05;2.20;;;6.50;76.10;;;;;;2374763;56;21587;-50
2022/12/07 11:16:24;;;;;;;7.87;2.37;;;6.50;76.20;;;;;;2375925;56;21105;-49
2022/12/07 11:19:06;;;;;;;6.70;2.95;;;6.60;76.10;;;;;;2375701;56;21062;-52
2022/12/07 11:21:43;;;;;;;8.77;2.00;;;6.60;75.90;;;;;;2374778;56;22152;-48
2022/12/07 11:24:14;;;;;;;6.78;1.87;;;6.70;75.90;;;;;;2374495;56;21599;-51
2022/12/07 11:26:55;;;;;;;5.25;1.90;;;6.70;75.90;;;;;;2374255;56;21530;-49
2022/12/07 11:32:39;;;;;;;12.80;2.47;;;6.70;75.60;;;;;;2355722;57;22021;-50
2022/12/07 11:35:12;;;;;;;11.73;2.22;;;6.70;75.10;;;;;;2367942;56;21623;-54
2022/12/07 11:37:41;;;;;;;8.18;2.17;;;6.70;74.90;;;;;;2375938;56;21543;-49
2022/12/07 11:40:20;;;;;;;6.57;1.95;;;6.80;74.50;;;;;;2375340;56;21102;-51
2022/12/07 11:42:52;;;;;;;15.98;2.28;;;6.70;74.30;;;;;;2375068;56;21610;-53
2022/12/07 11:45:23;;;;;;;9.30;2.10;;;6.70;74.20;;;;;;2375045;56;21681;-56
2022/12/07 11:47:55;;;;;;;7.68;1.60;;;6.70;73.90;;;;;;2375055;56;21042;-53
2022/12/07 11:50:29;;;;;;;9.70;1.87;;;6.70;74.30;;;;;;2374509;56;21039;-51
2022/12/07 11:53:01;;;;;;;10.68;1.77;;;6.70;74.20;;;;;;2374610;56;21523;-49
2022/12/07 11:55:38;;;;;;;9.82;2.45;;;6.70;74.00;;;;;;2376165;56;21480;-49
2022/12/07 11:58:21;;;;;;;8.02;1.60;;;6.70;73.90;;;;;;2376152;56;21587;-50
2022/12/07 12:00:50;;;;;;;14.67;2.23;;;6.70;74.00;;;;;;2376367;56;21046;-51
2022/12/07 12:03:29;;;;;;;7.75;2.03;;;6.80;73.70;;;;;;2375905;56;21090;-55
2022/12/07 12:05:57;;;;;;;3.35;1.67;;;6.70;73.80;;;;;;2376092;56;21095;-48
2022/12/07 12:08:28;;;;;;;12.05;1.98;;;6.80;73.40;;;;;;2375365;56;21113;-49
2022/12/07 12:11:00;;;;;;;7.37;2.67;;;6.80;73.40;;;;;;2374797;56;21066;-53
2022/12/07 12:13:51;;;;;;;8.65;1.95;;;6.80;73.30;;;;;;2375315;56;21055;-52
2022/12/07 12:16:42;;;;;;;7.43;1.90;;;6.80;73.10;;;;;;2374607;56;21208;-51
2022/12/07 12:19:26;;;;;;;9.25;2.67;;;6.80;73.00;;;;;;2375070;56;22080;-49
2022/12/07 12:22:00;;;;;;;7.18;1.50;;;6.90;72.60;;;;;;2375062;56;21054;-53
2022/12/07 12:24:29;;;;;;;7.80;1.80;;;6.80;71.90;;;;;;2375497;56;21113;-48
2022/12/07 12:27:03;;;;;;;7.87;1.70;;;6.80;72.00;;;;;;2375518;56;21598;-47
2022/12/07 12:29:34;;;;;;;9.10;1.87;;;6.80;71.90;;;;;;2374789;56;21531;-54
2022/12/07 12:32:14;;;;;;;4.78;1.73;;;6.80;71.20;;;;;;2374436;56;21535;-48
2022/12/07 12:34:58;;;;;;;6.22;1.67;;;6.80;70.60;;;;;;2375138;56;21095;-48
2022/12/07 12:37:41;;;;;;;7.05;1.52;;;6.80;69.90;;;;;;2374830;56;21609;-55
2022/12/07 12:40:41;;;;;;;6.37;1.83;;;6.70;69.10;;;;;;2375044;56;21030;-46
2022/12/07 12:43:47;;;;;;;8.50;2.10;;;6.70;68.70;;;;;;2373923;56;21055;-51
2022/12/07 12:46:46;;;;;;;4.87;1.75;;;6.60;68.20;;;;;;2373775;56;21047;-51
2022/12/07 12:50:12;;;;;;;6.82;1.65;;;6.60;68.40;;;;;;2374022;56;21051;-48
2022/12/07 12:53:21;;;;;;;7.78;1.83;;;6.60;68.40;;;;;;2373707;56;21030;-50
2022/12/07 12:56:25;;;;;;;1.77;1.10;;;6.60;67.60;;;;;;2375148;56;21066;-53
2022/12/07 12:59:23;;;;;;;5.87;1.50;;;6.50;66.60;;;;;;2375310;56;21023;-53
2022/12/07 13:01:52;;;;;;;7.35;1.40;;;6.60;66.10;;;;;;2374179;56;21125;-49
2022/12/07 13:04:50;;;;;;;1.67;1.20;;;6.60;64.80;;;;;;2373641;56;21122;-52
2022/12/07 13:07:55;;;;;;;2.00;1.20;;;6.50;63.80;;;;;;2374088;56;21047;-47
2022/12/07 13:10:33;;;;;;;6.40;1.30;;;6.60;63.50;;;;;;2373682;56;21606;-52
2022/12/07 13:13:03;;;;;;;2.92;1.37;;;6.50;62.80;;;;;;2374059;56;21523;-52
2022/12/07 13:15:35;;;;;;;25.33;7.00;;;6.50;62.10;;;;;;2374262;56;21038;-48
2022/12/07 13:18:22;;;;;;;9.13;2.00;;;6.50;62.30;;;;;;2374654;56;21626;-52
2022/12/07 13:20:52;;;;;;;5.25;1.80;;;6.50;62.80;;;;;;2374029;56;21535;-49
2022/12/07 13:23:31;;;;;;;8.68;1.35;;;6.50;63.20;;;;;;2374219;56;21098;-51
2022/12/07 13:26:09;;;;;;;4.47;1.48;;;6.50;63.00;;;;;;2373961;56;21031;-50
2022/12/07 13:28:40;;;;;;;4.18;1.27;;;6.60;62.70;;;;;;2373691;56;21031;-46